| time (UTC) | temp F | wind direction | speed knots | gust knots | rain 1hr in | rain 24hr in | rain mn in | humidity % | barometer mb |
| 20260505152946 | 79 | 226 | 3.5 | 7.0 | 0.00 | 0.00 | 0.00 | 59 | |
| 20260505152443 | 78 | 146 | 2.6 | 5.2 | 0.00 | 0.00 | 0.00 | 60 | |
| 20260505151943 | 78 | 191 | 2.6 | 7.0 | 0.00 | 0.00 | 0.00 | 60 | |
| 20260505151439 | 78 | 208 | 3.5 | 7.8 | 0.00 | 0.00 | 0.00 | 61 | |
| 20260505150937 | 76 | 237 | 0.9 | 2.6 | 0.00 | 0.00 | 0.00 | 63 | |
| 20260505150433 | 76 | 267 | 1.7 | 6.1 | 0.00 | 0.00 | 0.00 | 63 | |
| 20260505140404 | 73 | 218 | 1.7 | 8.7 | 0.00 | 0.00 | 0.00 | 66 | |
| 20260505124817 | 64 | 206 | 1.7 | 2.6 | 0.00 | 0.00 | 0.00 | 81 | |
| 20260505124314 | 64 | 138 | 2.6 | 3.5 | 0.00 | 0.00 | 0.00 | 81 | |
| 20260505123810 | 63 | 118 | 0.9 | 2.6 | 0.00 | 0.00 | 0.00 | 82 | |
| 20260505123307 | 63 | 186 | 1.7 | 6.1 | 0.00 | 0.00 | 0.00 | 83 | |
| 20260505122803 | 62 | 153 | 1.7 | 2.6 | 0.00 | 0.00 | 0.00 | 84 | |
| 20260505122301 | 62 | 113 | 0.9 | 5.2 | 0.00 | 0.00 | 0.00 | 85 | |
| 20260505121757 | 61 | 123 | 2.6 | 2.6 | 0.00 | 0.00 | 0.00 | 86 | |
| 20260505121254 | 61 | 73 | 1.7 | 3.5 | 0.00 | 0.00 | 0.00 | 87 | |
| 20260505120750 | 60 | 145 | 0.0 | 0.9 | 0.00 | 0.00 | 0.00 | 88 | |
| 20260505120246 | 60 | 87 | 0.0 | 2.6 | 0.00 | 0.00 | 0.00 | 89 | |
| 20260505115745 | 59 | 96 | 0.0 | 2.6 | 0.00 | 0.00 | 0.00 | 90 | |
| 20260505115243 | 58 | 102 | 1.7 | 1.7 | 0.00 | 0.00 | 0.00 | 91 | |
| 20260505114740 | 58 | 101 | 0.0 | 0.9 | 0.00 | 0.00 | 0.00 | 92 | |
| 20260505114235 | 58 | 93 | 0.0 | 0.9 | 0.00 | 0.00 | 0.00 | 93 | |
| 20260505113733 | 57 | 92 | 1.7 | 2.6 | 0.00 | 0.00 | 0.00 | 94 | |
| 20260505113229 | 57 | 104 | 0.0 | 0.0 | 0.00 | 0.00 | 0.00 | 94 | |
| 20260505112725 | 56 | 92 | 0.0 | 0.0 | 0.00 | 0.00 | 0.00 | 94 | |
| 20260505112223 | 56 | 103 | 0.0 | 0.0 | 0.00 | 0.00 | 0.00 | 93 | |
| 20260505111723 | 56 | 82 | 0.0 | 0.0 | 0.00 | 0.00 | 0.00 | 93 | |
| 20260505111219 | 56 | 82 | 0.0 | 0.0 | 0.00 | 0.00 | 0.00 | 93 | |
| 20260505110715 | 56 | 83 | 0.0 | 0.0 | 0.00 | 0.00 | 0.00 | 92 | |
| 20260505110213 | 56 | 90 | 0.0 | 0.0 | 0.00 | 0.00 | 0.00 | 92 | |
| 20260505102148 | 56 | 98 | 0.9 | 0.9 | 0.00 | 0.00 | 0.00 | 93 | |
| 20260505101647 | 55 | 90 | 0.0 | 0.0 | 0.00 | 0.00 | 0.00 | 93 | |
| 20260505101143 | 55 | 94 | 0.0 | 0.0 | 0.00 | 0.00 | 0.00 | 93 | |
| 20260505100639 | 55 | 94 | 0.0 | 0.0 | 0.00 | 0.00 | 0.00 | 93 | |
| 20260505100136 | 56 | 94 | 0.0 | 0.0 | 0.00 | 0.00 | 0.00 | 93 | |
| 20260505095632 | 56 | 94 | 0.0 | 0.9 | 0.00 | 0.00 | 0.00 | 93 | |
| 20260505095129 | 56 | 104 | 0.0 | 0.0 | 0.00 | 0.00 | 0.00 | 92 | |
| 20260505094625 | 56 | 98 | 0.0 | 0.0 | 0.00 | 0.00 | 0.00 | 92 | |
| 20260505094122 | 56 | 98 | 0.0 | 0.0 | 0.00 | 0.00 | 0.00 | 92 | |
| 20260505093618 | 56 | 98 | 0.0 | 0.0 | 0.00 | 0.00 | 0.00 | 92 | |
| 20260505093115 | 56 | 98 | 0.0 | 0.0 | 0.00 | 0.00 | 0.00 | 92 | |
| 20260505092612 | 56 | 98 | 0.0 | 0.0 | 0.00 | 0.00 | 0.00 | 91 | |
| 20260505092112 | 56 | 98 | 0.0 | 0.0 | 0.00 | 0.00 | 0.00 | 91 | |
| 20260505091607 | 56 | 98 | 0.0 | 0.0 | 0.00 | 0.00 | 0.00 | 91 | |
| 20260505091106 | 56 | 98 | 0.0 | 0.0 | 0.00 | 0.00 | 0.00 | 91 | |
| 20260505090603 | 56 | 98 | 0.0 | 0.0 | 0.00 | 0.00 | 0.00 | 90 | |
| 20260505090101 | 56 | 98 | 0.0 | 0.0 | 0.00 | 0.00 | 0.00 | 90 | |
| 20260505085558 | 57 | 98 | 0.0 | 0.0 | 0.00 | 0.00 | 0.00 | 90 | |
| 20260505085057 | 57 | 98 | 0.0 | 0.0 | 0.00 | 0.00 | 0.00 | 90 | |
| 20260505084554 | 57 | 98 | 0.0 | 0.0 | 0.00 | 0.00 | 0.00 | 89 | |
| 20260505084052 | 57 | 99 | 0.0 | 0.0 | 0.00 | 0.00 | 0.00 | 88 | |
| 20260505083549 | 58 | 99 | 0.0 | 0.0 | 0.00 | 0.00 | 0.00 | 88 | |
| 20260505083046 | 58 | 98 | 0.0 | 0.0 | 0.00 | 0.00 | 0.00 | 87 | |
| 20260505082541 | 58 | 98 | 0.0 | 0.0 | 0.00 | 0.00 | 0.00 | 86 | |
| 20260505082039 | 58 | 85 | 0.0 | 0.0 | 0.00 | 0.00 | 0.00 | 85 | |
| 20260505081535 | 59 | 87 | 0.0 | 0.0 | 0.00 | 0.00 | 0.00 | 85 | |
| 20260505081032 | 59 | 87 | 0.0 | 0.0 | 0.00 | 0.00 | 0.00 | 84 | |
| 20260505080528 | 60 | 94 | 0.0 | 0.9 | 0.00 | 0.00 | 0.00 | 84 | |
| 20260505080025 | 60 | 90 | 0.0 | 0.0 | 0.00 | 0.00 | 0.00 | 83 | |
| 20260505075521 | 60 | 89 | 0.0 | 0.0 | 0.00 | 0.00 | 0.00 | 83 | |
| 20260505075018 | 60 | 90 | 0.0 | 0.0 | 0.00 | 0.00 | 0.00 | 83 | |
| 20260505074515 | 60 | 109 | 0.0 | 0.9 | 0.00 | 0.00 | 0.00 | 82 | |
| 20260505074012 | 61 | 126 | 0.0 | 0.0 | 0.00 | 0.00 | 0.00 | 82 | |
| 20260505073510 | 61 | 117 | 0.0 | 0.0 | 0.00 | 0.00 | 0.00 | 82 | |
| 20260505073008 | 61 | 161 | 1.7 | 1.7 | 0.00 | 0.00 | 0.00 | 82 | |
| 20260505072503 | 61 | 85 | 0.0 | 0.9 | 0.00 | 0.00 | 0.00 | 82 | |
| 20260505071959 | 61 | 202 | 0.9 | 0.9 | 0.00 | 0.00 | 0.00 | 81 | |
| 20260505071455 | 61 | 123 | 0.9 | 1.7 | 0.00 | 0.00 | 0.00 | 81 | |
| 20260505070953 | 61 | 132 | 0.9 | 1.7 | 0.00 | 0.00 | 0.00 | 81 | |
| 20260505070450 | 61 | 88 | 0.0 | 0.9 | 0.00 | 0.00 | 0.00 | 80 | |
| 20260505065946 | 61 | 81 | 0.0 | 0.9 | 0.00 | 0.00 | 0.00 | 80 | |
| 20260505065442 | 61 | 108 | 1.7 | 2.6 | 0.00 | 0.00 | 0.00 | 80 | |
| 20260505064939 | 61 | 97 | 0.0 | 0.9 | 0.00 | 0.00 | 0.00 | 81 | |
| 20260505064436 | 61 | 100 | 0.0 | 0.9 | 0.00 | 0.00 | 0.00 | 81 | |
| 20260505063934 | 61 | 148 | 0.0 | 0.9 | 0.00 | 0.00 | 0.00 | 80 | |
| 20260505063431 | 61 | 90 | 0.0 | 0.0 | 0.00 | 0.00 | 0.00 | 80 | |
| 20260505062927 | 62 | 108 | 0.0 | 0.0 | 0.00 | 0.00 | 0.00 | 79 | |
| 20260505062425 | 62 | 108 | 0.0 | 0.9 | 0.00 | 0.00 | 0.00 | 79 | |
| 20260505061921 | 62 | 72 | 0.0 | 0.9 | 0.00 | 0.00 | 0.00 | 79 | |
| 20260505061420 | 62 | 131 | 0.0 | 0.0 | 0.00 | 0.00 | 0.00 | 79 | |
| 20260505060917 | 62 | 89 | 0.0 | 0.0 | 0.00 | 0.00 | 0.00 | 78 | |
| 20260505060413 | 62 | 81 | 0.0 | 0.9 | 0.00 | 0.00 | 0.00 | 78 | |
| 20260505055910 | 63 | 142 | 0.0 | 0.9 | 0.00 | 0.00 | 0.00 | 77 | |
| 20260505055406 | 62 | 111 | 0.9 | 3.5 | 0.00 | 0.00 | 0.00 | 77 | |
| 20260505054903 | 62 | 108 | 0.0 | 2.6 | 0.00 | 0.00 | 0.00 | 77 | |
| 20260505054400 | 63 | 107 | 0.9 | 1.7 | 0.00 | 0.00 | 0.00 | 77 | |
| 20260505053858 | 63 | 110 | 0.9 | 1.7 | 0.00 | 0.00 | 0.00 | 77 | |
| 20260505053355 | 63 | 128 | 0.9 | 1.7 | 0.00 | 0.00 | 0.00 | 76 | |
| 20260505052852 | 63 | 79 | 0.0 | 0.9 | 0.00 | 0.00 | 0.00 | 76 | |
| 20260505052348 | 63 | 161 | 2.6 | 3.5 | 0.00 | 0.00 | 0.00 | 75 | |
| 20260505051846 | 63 | 116 | 1.7 | 3.5 | 0.00 | 0.00 | 0.00 | 76 | |
| 20260505051343 | 64 | 78 | 0.0 | 0.9 | 0.00 | 0.00 | 0.00 | 75 | |
| 20260505050841 | 64 | 134 | 0.9 | 1.7 | 0.00 | 0.00 | 0.00 | 75 | |
| 20260505050339 | 64 | 107 | 0.9 | 2.6 | 0.00 | 0.00 | 0.00 | 74 | |
| 20260505041306 | 65 | 105 | 1.7 | 3.5 | 0.00 | 0.00 | 0.00 | 70 | |
| 20260505040804 | 65 | 87 | 0.0 | 2.6 | 0.00 | 0.00 | 0.00 | 70 | |
| 20260505040301 | 65 | 118 | 2.6 | 5.2 | 0.00 | 0.00 | 0.00 | 70 | |
| 20260505035758 | 65 | 108 | 0.9 | 3.5 | 0.00 | 0.00 | 0.00 | 69 | |
| 20260505035253 | 66 | 91 | 1.7 | 2.6 | 0.00 | 0.00 | 0.00 | 69 | |
| 20260505034751 | 66 | 73 | 0.0 | 2.6 | 0.00 | 0.00 | 0.00 | 68 | |
| 20260505034247 | 66 | 107 | 0.9 | 1.7 | 0.00 | 0.00 | 0.00 | 68 | |
| 20260505033744 | 66 | 97 | 0.9 | 5.2 | 0.00 | 0.00 | 0.00 | 67 | |
| 20260505033242 | 66 | 85 | 0.0 | 0.9 | 0.00 | 0.00 | 0.00 | 67 | |
| 20260505032740 | 66 | 88 | 0.9 | 2.6 | 0.00 | 0.00 | 0.00 | 66 | |
| 20260505032235 | 66 | 81 | 0.9 | 2.6 | 0.00 | 0.00 | 0.00 | 65 | |
| 20260505031733 | 66 | 117 | 1.7 | 1.7 | 0.00 | 0.00 | 0.00 | 64 | |
| 20260505031229 | 66 | 81 | 1.7 | 1.7 | 0.00 | 0.00 | 0.00 | 63 | |
| 20260505030726 | 67 | 71 | 0.0 | 1.7 | 0.00 | 0.00 | 0.00 | 62 | |
| 20260505030222 | 67 | 130 | 0.9 | 0.9 | 0.00 | 0.00 | 0.00 | 61 | |
| 20260505025718 | 67 | 80 | 1.7 | 1.7 | 0.00 | 0.00 | 0.00 | 60 | |
| 20260505025217 | 68 | 96 | 0.0 | 0.0 | 0.00 | 0.00 | 0.00 | 60 | |
| 20260505024714 | 68 | 97 | 0.0 | 1.7 | 0.00 | 0.00 | 0.00 | 59 | |
| 20260505024211 | 68 | 99 | 1.7 | 5.2 | 0.00 | 0.00 | 0.00 | 59 | |
| 20260505023708 | 68 | 73 | 0.9 | 3.5 | 0.00 | 0.00 | 0.00 | 58 | |
| 20260505023205 | 68 | 147 | 3.5 | 6.1 | 0.00 | 0.00 | 0.00 | 58 | |
| 20260505022703 | 68 | 95 | 0.9 | 3.5 | 0.00 | 0.00 | 0.00 | 57 | |
| 20260505022200 | 68 | 130 | 3.5 | 6.1 | 0.00 | 0.00 | 0.00 | 57 | |
| 20260505021656 | 68 | 86 | 0.0 | 0.9 | 0.00 | 0.00 | 0.00 | 57 | |
| 20260505021153 | 68 | 80 | 0.9 | 0.9 | 0.00 | 0.00 | 0.00 | 56 | |
| 20260505020649 | 68 | 109 | 0.9 | 3.5 | 0.00 | 0.00 | 0.00 | 55 | |
| 20260505020145 | 69 | 102 | 0.9 | 1.7 | 0.00 | 0.00 | 0.00 | 55 | |
| 20260505015642 | 69 | 102 | 0.9 | 0.9 | 0.00 | 0.00 | 0.00 | 55 | |
| 20260505015139 | 68 | 121 | 1.7 | 2.6 | 0.00 | 0.00 | 0.00 | 54 | |
| 20260505014636 | 65 | 143 | 1.7 | 5.2 | 0.00 | 0.00 | 0.00 | 57 | |
| 20260505014133 | 64 | 23 | 1.7 | 2.6 | 0.00 | 0.00 | 0.00 | 59 | |
| 20260505013630 | 64 | 185 | 0.0 | 0.0 | 0.00 | 0.00 | 0.00 | 60 | |
| 20260505013127 | 65 | 185 | 0.0 | 0.0 | 0.00 | 0.00 | 0.00 | 59 | |
| 20260505012626 | 65 | 185 | 0.0 | 0.0 | 0.00 | 0.00 | 0.00 | 56 | |
| 20260505012122 | 65 | 185 | 0.0 | 0.0 | 0.00 | 0.00 | 0.00 | 60 | |
| 20260505011618 | 66 | 185 | 0.0 | 0.0 | 0.00 | 0.00 | 0.00 | 56 | |
| 20260505011115 | 66 | 185 | 0.0 | 0.0 | 0.00 | 0.00 | 0.00 | 56 | |
| 20260505010610 | 67 | 185 | 0.0 | 0.0 | 0.00 | 0.00 | 0.00 | 55 | |
| 20260505010108 | 67 | 185 | 0.0 | 0.0 | 0.00 | 0.00 | 0.00 | 54 | |
| 20260505005603 | 68 | 185 | 0.0 | 0.0 | 0.00 | 0.00 | 0.00 | 54 | |
| 20260505005101 | 68 | 185 | 0.0 | 0.0 | 0.00 | 0.00 | 0.00 | 56 | |
| 20260505004558 | 69 | 185 | 0.0 | 0.0 | 0.00 | 0.00 | 0.00 | 54 | |
| 20260505004055 | 70 | 185 | 0.0 | 0.0 | 0.00 | 0.00 | 0.00 | 53 | |
| 20260505003552 | 70 | 186 | 0.0 | 0.0 | 0.00 | 0.00 | 0.00 | 46 | |
| 20260505003049 | 71 | 186 | 0.0 | 0.0 | 0.00 | 0.00 | 0.00 | 47 | |
| 20260505002550 | 72 | 186 | 0.0 | 0.0 | 0.00 | 0.00 | 0.00 | 45 | |
| 20260505002049 | 73 | 186 | 0.0 | 0.0 | 0.00 | 0.00 | 0.00 | 43 | |
| 20260505001546 | 74 | 186 | 0.0 | 0.0 | 0.00 | 0.00 | 0.00 | 41 | |
| 20260505001043 | 74 | 177 | 0.0 | 0.9 | 0.00 | 0.00 | 0.00 | 41 | |
| 20260505000540 | 75 | 162 | 0.0 | 0.9 | 0.00 | 0.00 | 0.00 | 41 | |
| 20260505000038 | 75 | 204 | 0.9 | 1.7 | 0.00 | 0.00 | 0.00 | 38 | |
| 20260504235534 | 76 | 169 | 0.0 | 0.0 | 0.00 | 0.00 | 0.00 | 39 | |
| 20260504235031 | 77 | 185 | 0.9 | 0.9 | 0.00 | 0.00 | 0.00 | 36 | |
| 20260504234528 | 78 | 190 | 0.0 | 1.7 | 0.00 | 0.00 | 0.00 | 38 | |
| 20260504234025 | 78 | 210 | 0.9 | 1.7 | 0.00 | 0.00 | 0.00 | 35 | |
| 20260504233520 | 78 | 220 | 1.7 | 1.7 | 0.00 | 0.00 | 0.00 | 35 | |
| 20260504233017 | 78 | 189 | 1.7 | 3.5 | 0.00 | 0.00 | 0.00 | 34 | |
| 20260504232514 | 79 | 200 | 1.7 | 3.5 | 0.00 | 0.00 | 0.00 | 34 | |
| 20260504232012 | 79 | 191 | 0.9 | 2.6 | 0.00 | 0.00 | 0.00 | 33 | |
| 20260504231508 | 80 | 279 | 0.9 | 2.6 | 0.00 | 0.00 | 0.00 | 32 | |
| 20260504231004 | 80 | 241 | 0.9 | 1.7 | 0.00 | 0.00 | 0.00 | 32 | |
| 20260504230500 | 80 | 246 | 0.9 | 2.6 | 0.00 | 0.00 | 0.00 | 32 | |
| 20260504230000 | 80 | 242 | 1.7 | 2.6 | 0.00 | 0.00 | 0.00 | 32 | |
| 20260504225456 | 80 | 247 | 1.7 | 2.6 | 0.00 | 0.00 | 0.00 | 32 | |
| 20260504224953 | 80 | 281 | 0.9 | 2.6 | 0.00 | 0.00 | 0.00 | 32 | |
| 20260504224450 | 80 | 227 | 1.7 | 5.2 | 0.00 | 0.00 | 0.00 | 32 | |
| 20260504223947 | 80 | 138 | 4.3 | 6.1 | 0.00 | 0.00 | 0.00 | 32 | |
| 20260504223443 | 80 | 252 | 2.6 | 2.6 | 0.00 | 0.00 | 0.00 | 32 | |
| 20260504222938 | 81 | 266 | 1.7 | 3.5 | 0.00 | 0.00 | 0.00 | 32 | |
| 20260504222436 | 81 | 262 | 1.7 | 2.6 | 0.00 | 0.00 | 0.00 | 33 | |
| 20260504221934 | 81 | 32 | 0.0 | 0.9 | 0.00 | 0.00 | 0.00 | 31 | |
| 20260504221431 | 81 | 164 | 0.9 | 1.7 | 0.00 | 0.00 | 0.00 | 32 | |
| 20260504220928 | 81 | 234 | 1.7 | 2.6 | 0.00 | 0.00 | 0.00 | 32 | |
| 20260504220425 | 81 | 213 | 2.6 | 3.5 | 0.00 | 0.00 | 0.00 | 31 | |
| 20260504215922 | 81 | 198 | 1.7 | 6.1 | 0.00 | 0.00 | 0.00 | 33 | |
| 20260504215419 | 82 | 191 | 1.7 | 2.6 | 0.00 | 0.00 | 0.00 | 30 | |
| 20260504214915 | 81 | 327 | 0.9 | 1.7 | 0.00 | 0.00 | 0.00 | 30 | |
| 20260504214411 | 83 | 264 | 4.3 | 5.2 | 0.00 | 0.00 | 0.00 | 32 | |
| 20260504213908 | 83 | 290 | 2.6 | 5.2 | 0.00 | 0.00 | 0.00 | 29 | |
| 20260504213404 | 83 | 232 | 1.7 | 2.6 | 0.00 | 0.00 | 0.00 | 29 | |
| 20260504212902 | 82 | 311 | 0.9 | 2.6 | 0.00 | 0.00 | 0.00 | 29 | |
| 20260504212357 | 82 | 85 | 0.9 | 3.5 | 0.00 | 0.00 | 0.00 | 30 | |
| 20260504211855 | 82 | 116 | 0.0 | 2.6 | 0.00 | 0.00 | 0.00 | 31 | |
| 20260504211351 | 83 | 25 | 0.9 | 7.0 | 0.00 | 0.00 | 0.00 | 29 | |
| 20260504210849 | 82 | 184 | 0.9 | 0.9 | 0.00 | 0.00 | 0.00 | 29 | |
| 20260504210345 | 82 | 99 | 2.6 | 7.0 | 0.00 | 0.00 | 0.00 | 28 | |
| 20260504205843 | 82 | 282 | 1.7 | 2.6 | 0.00 | 0.00 | 0.00 | 28 | |
| 20260504205341 | 82 | 298 | 1.7 | 2.6 | 0.00 | 0.00 | 0.00 | 30 | |
| 20260504204838 | 82 | 130 | 0.9 | 6.1 | 0.00 | 0.00 | 0.00 | 29 | |
| 20260504204337 | 81 | 266 | 0.9 | 5.2 | 0.00 | 0.00 | 0.00 | 29 | |
| 20260504203836 | 82 | 173 | 2.6 | 7.8 | 0.00 | 0.00 | 0.00 | 30 | |
| 20260504203332 | 82 | 332 | 4.3 | 6.1 | 0.00 | 0.00 | 0.00 | 30 | |
| 20260504202828 | 82 | 185 | 0.9 | 1.7 | 0.00 | 0.00 | 0.00 | 29 | |
| 20260504202326 | 83 | 221 | 3.5 | 5.2 | 0.00 | 0.00 | 0.00 | 28 | |
| 20260504201822 | 83 | 313 | 2.6 | 2.6 | 0.00 | 0.00 | 0.00 | 29 | |
| 20260504201319 | 83 | 245 | 0.0 | 1.7 | 0.00 | 0.00 | 0.00 | 30 | |
| 20260504200817 | 81 | 53 | 0.0 | 2.6 | 0.00 | 0.00 | 0.00 | 31 | |
| 20260504200313 | 81 | 271 | 1.7 | 3.5 | 0.00 | 0.00 | 0.00 | 30 | |
| 20260504195809 | 82 | 216 | 4.3 | 6.1 | 0.00 | 0.00 | 0.00 | 30 | |
| 20260504195305 | 83 | 210 | 0.9 | 2.6 | 0.00 | 0.00 | 0.00 | 29 | |
| 20260504194802 | 82 | 163 | 1.7 | 1.7 | 0.00 | 0.00 | 0.00 | 33 | |
| 20260504194258 | 83 | 270 | 0.0 | 3.5 | 0.00 | 0.00 | 0.00 | 29 | |
| 20260504193754 | 83 | 234 | 1.7 | 2.6 | 0.00 | 0.00 | 0.00 | 29 | |
| 20260504193252 | 83 | 59 | 0.9 | 2.6 | 0.00 | 0.00 | 0.00 | 30 | |
| 20260504192750 | 82 | 310 | 1.7 | 2.6 | 0.00 | 0.00 | 0.00 | 31 | |
| 20260504192248 | 81 | 291 | 1.7 | 1.7 | 0.00 | 0.00 | 0.00 | 30 | |
| 20260504191747 | 80 | 120 | 0.9 | 1.7 | 0.00 | 0.00 | 0.00 | 31 | |
| 20260504191243 | 82 | 28 | 0.9 | 3.5 | 0.00 | 0.00 | 0.00 | 29 | |
| 20260504190739 | 82 | 62 | 0.0 | 1.7 | 0.00 | 0.00 | 0.00 | 33 | |
| 20260504190235 | 81 | 18 | 2.6 | 3.5 | 0.00 | 0.00 | 0.00 | 30 | |
| 20260504185732 | 80 | 122 | 0.9 | 2.6 | 0.00 | 0.00 | 0.00 | 30 | |
| 20260504185229 | 80 | 226 | 2.6 | 5.2 | 0.00 | 0.00 | 0.00 | 32 | |
| 20260504184725 | 81 | 144 | 3.5 | 3.5 | 0.00 | 0.00 | 0.00 | 30 | |
| 20260504184221 | 81 | 60 | 0.9 | 2.6 | 0.00 | 0.00 | 0.00 | 32 | |
| 20260504183717 | 82 | 64 | 0.9 | 1.7 | 0.00 | 0.00 | 0.00 | 31 | |
| 20260504183214 | 80 | 58 | 0.9 | 1.7 | 0.00 | 0.00 | 0.00 | 33 | |
| 20260504182712 | 79 | 57 | 0.9 | 2.6 | 0.00 | 0.00 | 0.00 | 31 | |
| 20260504182209 | 79 | 4 | 1.7 | 2.6 | 0.00 | 0.00 | 0.00 | 33 | |
| 20260504181707 | 80 | 25 | 1.7 | 2.6 | 0.00 | 0.00 | 0.00 | 34 | |
| 20260504181204 | 79 | 119 | 3.5 | 5.2 | 0.00 | 0.00 | 0.00 | 33 | |
| 20260504180703 | 77 | 221 | 0.9 | 7.0 | 0.00 | 0.00 | 0.00 | 34 | |
| 20260504180201 | 80 | 109 | 4.3 | 6.1 | 0.00 | 0.00 | 0.00 | 33 | |
| 20260504175658 | 80 | 13 | 1.7 | 3.5 | 0.00 | 0.00 | 0.00 | 35 | |
| 20260504175155 | 78 | 95 | 0.0 | 1.7 | 0.00 | 0.00 | 0.00 | 34 | |
| 20260504174653 | 79 | 5 | 1.7 | 5.2 | 0.00 | 0.00 | 0.00 | 36 | |
| 20260504174149 | 79 | 133 | 4.3 | 7.0 | 0.00 | 0.00 | 0.00 | 35 | |
| 20260504173646 | 79 | 110 | 0.0 | 0.9 | 0.00 | 0.00 | 0.00 | 34 | |
| 20260504173144 | 79 | 101 | 0.9 | 7.0 | 0.00 | 0.00 | 0.00 | 36 | |
| 20260504172640 | 77 | 351 | 0.9 | 1.7 | 0.00 | 0.00 | 0.00 | 35 | |
| 20260504172137 | 78 | 79 | 2.6 | 5.2 | 0.00 | 0.00 | 0.00 | 36 | |
| 20260504171633 | 78 | 195 | 1.7 | 6.1 | 0.00 | 0.00 | 0.00 | 36 | |
| 20260504171131 | 80 | 134 | 1.7 | 3.5 | 0.00 | 0.00 | 0.00 | 35 | |
| 20260504170627 | 80 | 54 | 0.9 | 0.9 | 0.00 | 0.00 | 0.00 | 34 | |
| 20260504170124 | 80 | 96 | 0.0 | 0.9 | 0.00 | 0.00 | 0.00 | 35 |